Time;durP1;ratioP1;P1;durP2;ratioP2;P2;SDS_P1;SDS_P2;PMS_P1;PMS_P2;Temp;Humidity;BMP_temperature;BMP_pressure;BME280_temperature;BME280_humidity;BME280_pressure;Samples;Min_cycle;Max_cycle;Signal;HPM_P1;HPM_P2
2023/04/20 00:00:22;;;;;;;5.53;3.28;;;8.40;97.60;;;;;;4989627;28;20690;-50
2023/04/20 00:02:47;;;;;;;4.13;2.83;;;8.70;96.90;;;;;;4990267;28;20180;-50
2023/04/20 00:05:13;;;;;;;6.07;3.20;;;8.40;97.90;;;;;;4989971;28;20489;-49
2023/04/20 00:07:40;;;;;;;8.40;3.35;;;8.40;97.90;;;;;;4989454;28;20680;-50
2023/04/20 00:10:07;;;;;;;9.45;2.97;;;8.30;97.80;;;;;;4990014;28;20226;-50
2023/04/20 00:12:32;;;;;;;5.00;3.17;;;8.40;98.40;;;;;;4989918;28;20600;-49
2023/04/20 00:14:58;;;;;;;5.07;2.80;;;8.40;99.00;;;;;;4990690;28;20255;-49
2023/04/20 00:17:23;;;;;;;8.63;3.30;;;8.30;99.90;;;;;;4990102;28;20200;-48
2023/04/20 00:19:50;;;;;;;7.82;3.10;;;;;;;;;;4990128;28;20177;-49
2023/04/20 00:22:15;;;;;;;5.38;3.03;;;8.20;99.50;;;;;;4989760;28;20164;-50
2023/04/20 00:24:41;;;;;;;6.18;3.08;;;8.30;99.80;;;;;;4989884;28;20512;-46
2023/04/20 00:27:06;;;;;;;7.70;3.17;;;8.30;99.90;;;;;;4986784;28;20619;-49
2023/04/20 00:29:32;;;;;;;5.00;3.13;;;;;;;;;;4969011;28;20575;-47
2023/04/20 00:31:58;;;;;;;8.13;2.60;;;8.20;99.90;;;;;;4970367;28;20174;-49
2023/04/20 00:34:24;;;;;;;4.80;2.63;;;8.40;99.70;;;;;;4969918;28;20192;-46
2023/04/20 00:36:49;;;;;;;3.47;2.97;;;8.40;99.90;;;;;;4970232;28;20173;-49
2023/04/20 00:39:15;;;;;;;4.70;2.97;;;8.10;99.90;;;;;;4970026;28;20169;-50
2023/04/20 00:41:41;;;;;;;7.30;3.15;;;8.40;99.90;;;;;;4970231;28;20169;-50
2023/04/20 00:44:07;;;;;;;4.38;2.90;;;8.50;99.90;;;;;;4970320;28;20169;-50
2023/04/20 00:46:32;;;;;;;9.02;3.38;;;8.20;99.90;;;;;;4970397;28;20177;-49
2023/04/20 00:48:59;;;;;;;5.20;3.72;;;;;;;;;;4970083;28;20209;-46
2023/04/20 00:51:26;;;;;;;6.35;2.85;;;8.30;99.90;;;;;;4970113;28;20256;-49
2023/04/20 00:53:51;;;;;;;5.80;3.13;;;8.30;99.90;;;;;;5057152;28;20173;-49
2023/04/20 00:56:18;;;;;;;5.47;2.83;;;;;;;;;;5005239;28;20688;-50
2023/04/20 00:58:44;;;;;;;5.30;3.00;;;8.30;99.90;;;;;;4989518;28;20177;-45
2023/04/20 01:01:11;;;;;;;6.70;2.88;;;8.30;99.90;;;;;;4989473;28;20616;-45
2023/04/20 01:03:38;;;;;;;6.63;3.15;;;8.30;99.90;;;;;;4989043;28;20184;-50
2023/04/20 01:06:04;;;;;;;5.85;3.25;;;8.20;99.90;;;;;;4989444;28;20242;-50
2023/04/20 01:08:30;;;;;;;6.82;2.90;;;8.30;99.90;;;;;;4989085;28;20192;-50
2023/04/20 01:10:56;;;;;;;4.07;3.20;;;8.30;99.90;;;;;;4989287;28;20184;-48
2023/04/20 01:13:22;;;;;;;4.50;3.00;;;8.10;99.90;;;;;;4989274;28;20637;-49
2023/04/20 01:15:48;;;;;;;6.70;2.97;;;;;;;;;;4989463;28;20195;-45
2023/04/20 01:18:14;;;;;;;6.72;3.17;;;8.20;99.90;;;;;;4989286;28;20625;-46
2023/04/20 01:20:40;;;;;;;5.38;3.13;;;8.10;99.90;;;;;;4992959;28;20175;-46
2023/04/20 01:23:05;;;;;;;4.10;3.15;;;8.20;99.90;;;;;;4992652;28;20253;-47
2023/04/20 01:25:31;;;;;;;4.57;3.42;;;8.20;99.90;;;;;;4983265;28;20526;-45
2023/04/20 01:27:56;;;;;;;4.18;3.10;;;8.30;99.90;;;;;;4973110;28;20177;-45
2023/04/20 01:30:22;;;;;;;3.75;2.78;;;8.20;99.90;;;;;;4972855;28;20209;-45
2023/04/20 01:32:48;;;;;;;3.92;3.00;;;;;;;;;;4973143;28;20169;-45
2023/04/20 01:35:15;;;;;;;7.10;3.05;;;8.10;98.00;;;;;;4973259;28;20255;-45
2023/04/20 01:37:41;;;;;;;4.72;2.72;;;8.20;96.60;;;;;;4973312;28;20216;-45
2023/04/20 01:40:09;;;;;;;6.05;2.75;;;8.20;96.30;;;;;;4972934;28;20222;-45
2023/04/20 01:42:35;;;;;;;4.82;2.65;;;8.20;95.40;;;;;;4972782;28;20222;-45
2023/04/20 01:45:01;;;;;;;6.97;2.72;;;;;;;;;;4973464;28;20181;-46
2023/04/20 01:47:26;;;;;;;8.57;2.95;;;8.40;95.10;;;;;;4972858;28;20166;-46
2023/04/20 01:49:52;;;;;;;5.38;2.72;;;8.30;95.00;;;;;;4972768;28;20365;-46
2023/04/20 01:52:17;;;;;;;3.38;2.60;;;8.20;95.20;;;;;;4972814;28;20203;-46
2023/04/20 01:54:43;;;;;;;4.38;2.85;;;;;;;;;;4977039;28;20169;-50
2023/04/20 01:57:09;;;;;;;5.72;2.67;;;8.40;95.50;;;;;;4990363;28;20263;-49
2023/04/20 01:59:35;;;;;;;7.03;3.28;;;8.40;96.10;;;;;;4990269;28;20269;-50
2023/04/20 02:02:00;;;;;;;7.90;3.47;;;8.40;97.20;;;;;;4991920;28;20222;-48
2023/04/20 02:04:26;;;;;;;5.00;3.08;;;8.40;98.20;;;;;;4991542;28;20214;-48
2023/04/20 02:06:51;;;;;;;5.00;2.92;;;8.40;99.50;;;;;;4991536;28;20176;-47
2023/04/20 02:09:17;;;;;;;5.32;2.80;;;8.40;98.90;;;;;;4991141;28;20224;-49
2023/04/20 02:11:43;;;;;;;6.70;3.00;;;8.30;98.60;;;;;;4990010;28;20268;-48
2023/04/20 02:14:09;;;;;;;6.45;3.05;;;;;;;;;;4991284;28;20256;-48
2023/04/20 02:16:35;;;;;;;5.78;2.72;;;8.40;96.90;;;;;;4991235;28;20184;-48
2023/04/20 02:19:01;;;;;;;4.80;2.72;;;8.40;96.30;;;;;;4991691;28;20161;-48
2023/04/20 02:21:27;;;;;;;5.43;2.88;;;8.50;95.60;;;;;;4991685;28;20226;-48
2023/04/20 02:23:53;;;;;;;6.30;2.95;;;8.50;96.20;;;;;;4991216;28;20621;-48
2023/04/20 02:26:19;;;;;;;3.25;2.67;;;;;;;;;;4973755;28;20592;-47
2023/04/20 02:28:45;;;;;;;3.65;2.85;;;;;;;;;;4971657;28;20300;-48
2023/04/20 02:31:10;;;;;;;5.45;2.80;;;8.50;95.10;;;;;;4971368;28;20256;-46
2023/04/20 02:33:36;;;;;;;5.47;2.80;;;8.30;96.60;;;;;;4971587;28;20169;-44
2023/04/20 02:36:02;;;;;;;4.90;2.97;;;;;;;;;;4971726;28;20177;-45
2023/04/20 02:38:28;;;;;;;4.47;2.67;;;;;;;;;;4971961;28;20173;-44
2023/04/20 02:40:54;;;;;;;14.48;3.00;;;8.20;99.90;;;;;;4971557;28;20539;-43
2023/04/20 02:43:20;;;;;;;7.93;2.65;;;;;;;;;;4971421;28;20165;-43
2023/04/20 02:45:45;;;;;;;5.00;2.78;;;8.10;99.90;;;;;;4971537;28;20539;-44
2023/04/20 02:48:12;;;;;;;5.63;3.35;;;8.10;99.90;;;;;;4971403;28;20166;-43
2023/04/20 02:50:37;;;;;;;6.13;3.00;;;8.00;99.90;;;;;;4971203;28;20174;-44
2023/04/20 02:53:03;;;;;;;5.22;3.08;;;8.10;99.90;;;;;;4971550;28;20188;-44
2023/04/20 02:55:29;;;;;;;5.68;2.90;;;8.10;99.90;;;;;;4984110;28;20199;-44
2023/04/20 02:57:54;;;;;;;3.78;2.90;;;8.10;99.90;;;;;;4990338;28;20185;-44
2023/04/20 03:00:20;;;;;;;5.75;2.90;;;8.10;99.90;;;;;;4990738;28;20173;-44
2023/04/20 03:02:46;;;;;;;7.20;2.88;;;7.90;99.90;;;;;;4990879;28;20205;-44
2023/04/20 03:05:12;;;;;;;4.70;2.80;;;;;;;;;;4990265;28;20542;-44
2023/04/20 03:07:37;;;;;;;6.18;2.70;;;8.10;99.90;;;;;;4990434;28;20173;-43
2023/04/20 03:10:03;;;;;;;4.80;2.90;;;8.10;99.90;;;;;;4990234;28;20224;-43
2023/04/20 03:12:30;;;;;;;5.40;2.60;;;8.20;99.90;;;;;;4990885;28;20165;-43
2023/04/20 03:14:56;;;;;;;6.38;2.50;;;;;;;;;;4990428;28;20173;-43
2023/04/20 03:17:22;;;;;;;6.72;3.03;;;8.00;99.90;;;;;;4990765;28;20172;-44
2023/04/20 03:19:47;;;;;;;4.53;2.75;;;8.10;99.90;;;;;;4990398;28;20209;-44
2023/04/20 03:22:13;;;;;;;4.90;2.90;;;7.90;99.90;;;;;;4990346;28;20561;-43
2023/04/20 03:24:39;;;;;;;5.45;3.15;;;;;;;;;;4984385;28;20181;-44
2023/04/20 03:27:05;;;;;;;7.15;3.08;;;;;;;;;;4970897;28;20205;-44
2023/04/20 03:29:31;;;;;;;6.63;2.70;;;8.10;99.90;;;;;;4971026;28;20294;-45
2023/04/20 03:31:57;;;;;;;6.00;3.13;;;;;;;;;;4970592;28;20186;-47
2023/04/20 03:34:22;;;;;;;5.40;2.58;;;8.10;99.90;;;;;;4970560;28;20169;-44
2023/04/20 03:36:48;;;;;;;4.70;2.60;;;8.00;99.90;;;;;;4970510;28;20173;-44
2023/04/20 03:39:13;;;;;;;7.38;3.50;;;8.10;99.90;;;;;;4970727;28;20578;-43
2023/04/20 03:41:39;;;;;;;4.45;2.50;;;8.10;99.90;;;;;;4969671;28;20528;-43
2023/04/20 03:44:06;;;;;;;4.13;2.45;;;8.00;99.90;;;;;;4970530;28;20169;-43
2023/04/20 03:46:32;;;;;;;4.75;2.53;;;;;;;;;;4971147;28;20178;-44
2023/04/20 03:48:58;;;;;;;8.05;3.13;;;8.00;99.90;;;;;;4970591;28;20570;-43
2023/04/20 03:51:24;;;;;;;3.78;2.42;;;;;;;;;;4970633;28;20180;-44
2023/04/20 03:53:50;;;;;;;6.90;2.58;;;8.00;99.90;;;;;;4970534;28;20261;-44
2023/04/20 03:56:15;;;;;;;6.45;2.72;;;8.10;99.90;;;;;;4970364;28;20185;-43
2023/04/20 03:58:41;;;;;;;5.28;2.67;;;;;;;;;;4970201;28;20181;-44
2023/04/20 04:01:07;;;;;;;6.15;2.53;;;8.10;99.90;;;;;;4970450;28;20173;-43
2023/04/20 04:03:34;;;;;;;5.55;2.70;;;8.20;99.90;;;;;;4970243;28;20174;-43
2023/04/20 04:06:00;;;;;;;6.97;2.60;;;8.20;99.90;;;;;;4970658;28;20205;-43
2023/04/20 04:08:25;;;;;;;4.80;2.95;;;8.20;99.90;;;;;;4969900;28;20199;-43
2023/04/20 04:10:51;;;;;;;5.63;2.90;;;;;;;;;;4969998;28;20181;-43
2023/04/20 04:13:17;;;;;;;6.53;3.33;;;;;;;;;;4970160;28;20161;-44
2023/04/20 04:15:43;;;;;;;8.48;2.90;;;8.10;99.90;;;;;;4968956;28;20532;-44
2023/04/20 04:18:09;;;;;;;3.90;2.80;;;8.20;99.90;;;;;;4970069;28;20169;-45
2023/04/20 04:20:35;;;;;;;6.70;3.03;;;;;;;;;;4970353;28;20205;-43
2023/04/20 04:23:00;;;;;;;8.52;3.22;;;8.00;99.90;;;;;;4970238;28;20543;-45
2023/04/20 04:25:26;;;;;;;9.60;3.35;;;8.20;99.90;;;;;;4983533;28;20252;-45
2023/04/20 04:27:52;;;;;;;4.93;2.60;;;7.90;99.90;;;;;;4988543;28;20187;-44
2023/04/20 04:30:18;;;;;;;4.15;2.60;;;;;;;;;;4984090;28;20209;-47
2023/04/20 04:32:45;;;;;;;10.63;2.97;;;;;;;;;;4969802;28;20184;-44
2023/04/20 04:35:11;;;;;;;7.35;3.72;;;;;;;;;;4971252;28;20263;-43
2023/04/20 04:37:36;;;;;;;4.55;2.90;;;8.00;99.90;;;;;;4989226;28;20252;-44
2023/04/20 04:40:06;;;;;;;8.07;3.15;;;8.10;99.90;;;;;;4981035;28;20260;-44
2023/04/20 04:42:32;;;;;;;4.55;2.63;;;;;;;;;;4969734;28;20235;-44
2023/04/20 04:45:00;;;;;;;6.72;3.88;;;8.10;99.90;;;;;;4969922;28;20181;-44
2023/04/20 04:47:28;;;;;;;7.72;3.25;;;8.00;99.90;;;;;;4969650;28;20162;-44
2023/04/20 04:49:54;;;;;;;5.75;3.17;;;8.00;99.90;;;;;;4969747;28;20217;-45
2023/04/20 04:52:20;;;;;;;3.85;2.85;;;;;;;;;;4967620;28;20298;-43
2023/04/20 04:54:46;;;;;;;6.93;3.03;;;7.90;99.90;;;;;;4997531;28;20658;-43
2023/04/20 04:57:13;;;;;;;4.82;3.40;;;;;;;;;;5069277;28;20166;-43
2023/04/20 04:59:39;;;;;;;9.48;3.83;;;7.80;99.90;;;;;;5069504;28;20178;-44
2023/04/20 05:02:05;;;;;;;5.00;2.88;;;7.70;99.90;;;;;;5069561;28;20173;-46
2023/04/20 05:04:30;;;;;;;4.40;3.20;;;7.80;99.90;;;;;;5069738;28;20192;-45
2023/04/20 05:06:56;;;;;;;4.38;3.05;;;;;;;;;;5069415;28;20173;-45
2023/04/20 05:09:22;;;;;;;7.38;3.53;;;;;;;;;;5069184;28;20331;-47
2023/04/20 05:11:48;;;;;;;6.85;3.05;;;7.90;99.90;;;;;;4997413;28;20180;-50
2023/04/20 05:14:13;;;;;;;6.25;3.20;;;7.80;99.90;;;;;;4967820;28;20181;-47
2023/04/20 05:16:39;;;;;;;6.95;3.05;;;;;;;;;;4967922;28;20166;-44
2023/04/20 05:19:05;;;;;;;5.10;2.80;;;7.80;99.90;;;;;;4967900;28;20180;-47
2023/04/20 05:21:31;;;;;;;4.85;3.13;;;7.80;99.90;;;;;;4982212;28;20168;-48
2023/04/20 05:23:57;;;;;;;6.15;3.75;;;7.80;99.90;;;;;;4987577;28;20200;-49
2023/04/20 05:26:23;;;;;;;7.15;3.40;;;;;;;;;;4974292;28;20656;-47
2023/04/20 05:28:49;;;;;;;6.70;3.38;;;;;;;;;;4967878;28;20743;-47
2023/04/20 05:31:15;;;;;;;16.65;3.85;;;;;;;;;;4970370;28;20520;-53
2023/04/20 05:33:42;;;;;;;5.82;3.15;;;;;;;;;;4979595;28;20174;-48
2023/04/20 05:36:09;;;;;;;7.18;3.67;;;;;;;;;;4984722;28;20592;-51
2023/04/20 05:38:34;;;;;;;6.63;4.50;;;7.50;99.90;;;;;;4986287;28;20246;-45
2023/04/20 05:41:00;;;;;;;8.98;4.13;;;;;;;;;;4987230;28;20173;-45
2023/04/20 05:43:26;;;;;;;5.60;4.07;;;;;;;;;;4986951;28;20169;-46
2023/04/20 05:45:52;;;;;;;9.63;4.57;;;7.80;99.90;;;;;;4983548;28;20578;-47
2023/04/20 05:48:18;;;;;;;6.38;4.70;;;;;;;;;;4967234;28;20595;-47
2023/04/20 05:50:44;;;;;;;6.15;4.90;;;;;;;;;;4967718;28;20189;-46
2023/04/20 05:53:09;;;;;;;7.82;4.70;;;7.80;99.90;;;;;;4971900;28;20173;-46
2023/04/20 05:55:35;;;;;;;6.20;4.32;;;7.90;99.90;;;;;;4986879;28;20246;-47
2023/04/20 05:58:00;;;;;;;6.05;4.15;;;8.00;99.90;;;;;;4987307;28;20197;-47
2023/04/20 06:00:26;;;;;;;8.13;4.50;;;;;;;;;;4987424;28;20168;-47
2023/04/20 06:02:53;;;;;;;6.45;4.70;;;8.10;99.90;;;;;;4986847;28;20625;-46
2023/04/20 06:05:19;;;;;;;7.38;4.45;;;8.10;99.90;;;;;;4988214;28;20637;-47
2023/04/20 06:07:45;;;;;;;8.38;5.07;;;8.20;99.90;;;;;;4990486;28;20187;-46
2023/04/20 06:10:11;;;;;;;21.08;5.07;;;;;;;;;;4987167;28;20228;-44
2023/04/20 06:12:37;;;;;;;6.10;4.38;;;;;;;;;;4977337;28;20188;-45
2023/04/20 06:15:07;;;;;;;7.40;5.13;;;;;;;;;;4990374;28;20216;-45
2023/04/20 06:17:35;;;;;;;6.93;5.00;;;;;;;;;;4976921;28;20595;-50
2023/04/20 06:20:00;;;;;;;7.45;4.78;;;;;;;;;;4971248;28;20189;-43
2023/04/20 06:22:26;;;;;;;9.43;4.88;;;8.40;99.90;;;;;;4970985;28;20203;-45
2023/04/20 06:24:52;;;;;;;12.98;5.82;;;;;;;;;;4970465;28;20177;-47
2023/04/20 06:27:17;;;;;;;9.70;4.93;;;8.50;99.90;;;;;;4988477;28;20643;-46
2023/04/20 06:29:43;;;;;;;7.72;4.78;;;8.50;99.90;;;;;;4987802;28;20954;-45
2023/04/20 06:32:09;;;;;;;8.20;5.20;;;;;;;;;;4970562;28;20234;-45
2023/04/20 06:34:34;;;;;;;6.88;4.55;;;8.50;99.90;;;;;;4970573;28;20612;-44
2023/04/20 06:37:00;;;;;;;12.43;4.60;;;;;;;;;;4971037;28;20174;-44
2023/04/20 06:39:26;;;;;;;6.78;4.95;;;8.60;99.90;;;;;;4970729;28;20178;-45
2023/04/20 06:41:52;;;;;;;7.82;4.65;;;;;;;;;;4980963;28;20181;-45
2023/04/20 06:44:18;;;;;;;8.20;4.97;;;;;;;;;;4989405;28;20180;-46
2023/04/20 06:46:43;;;;;;;6.07;5.13;;;8.40;99.90;;;;;;4989810;28;20222;-45
2023/04/20 06:49:09;;;;;;;8.07;5.13;;;8.40;99.90;;;;;;4976372;28;20201;-45
2023/04/20 06:51:35;;;;;;;9.95;5.03;;;;;;;;;;4970147;28;20216;-45
2023/04/20 06:54:01;;;;;;;7.38;4.47;;;;;;;;;;4968903;28;20169;-45
2023/04/20 06:56:27;;;;;;;6.20;3.80;;;;;;;;;;4970772;28;20212;-45
2023/04/20 06:58:53;;;;;;;7.70;4.63;;;8.00;99.90;;;;;;4982468;28;20668;-46
2023/04/20 07:01:19;;;;;;;6.22;4.05;;;;;;;;;;4989487;28;20762;-45
2023/04/20 07:03:49;;;;;;;8.25;5.07;;;;;;;;;;4988749;28;20169;-50
2023/04/20 07:06:15;;;;;;;7.53;4.68;;;8.00;99.90;;;;;;4989584;28;20264;-50
2023/04/20 07:08:41;;;;;;;8.15;5.43;;;;;;;;;;4989288;28;20232;-50
2023/04/20 07:11:08;;;;;;;9.63;5.10;;;;;;;;;;4982950;28;20180;-46
2023/04/20 07:13:34;;;;;;;9.52;5.47;;;;;;;;;;4972076;28;20170;-49
2023/04/20 07:15:59;;;;;;;7.43;5.32;;;8.00;99.90;;;;;;4986917;28;20267;-46
2023/04/20 07:18:25;;;;;;;8.30;4.68;;;7.80;99.90;;;;;;4988931;28;20668;-45
2023/04/20 07:20:51;;;;;;;6.65;4.95;;;7.80;99.90;;;;;;4989132;28;20173;-45
2023/04/20 07:23:17;;;;;;;5.50;3.92;;;7.80;99.90;;;;;;4981039;28;20173;-45
2023/04/20 07:25:42;;;;;;;7.75;5.22;;;;;;;;;;4969603;28;20588;-45
2023/04/20 07:28:08;;;;;;;8.98;5.68;;;;;;;;;;4979471;28;20188;-47
2023/04/20 07:30:34;;;;;;;6.80;4.28;;;;;;;;;;4988781;28;20212;-46
2023/04/20 07:33:00;;;;;;;4.90;4.25;;;;;;;;;;4989333;28;20628;-47
2023/04/20 07:35:26;;;;;;;6.20;3.85;;;7.90;99.90;;;;;;4989284;28;20176;-45
2023/04/20 07:37:52;;;;;;;4.35;3.95;;;8.00;99.90;;;;;;4988942;28;20651;-45
2023/04/20 07:40:17;;;;;;;5.13;4.07;;;8.00;99.90;;;;;;4988927;28;20253;-45
2023/04/20 07:42:43;;;;;;;4.28;3.58;;;;;;;;;;4988770;28;20177;-45
2023/04/20 07:45:12;;;;;;;4.35;3.55;;;8.10;99.90;;;;;;4988874;28;20177;-47
2023/04/20 07:47:38;;;;;;;4.63;3.15;;;8.30;99.90;;;;;;4988868;28;20165;-46
2023/04/20 07:50:04;;;;;;;3.58;2.83;;;;;;;;;;4988628;28;20211;-47
2023/04/20 07:52:30;;;;;;;3.63;3.28;;;;;;;;;;4987658;28;20251;-45
2023/04/20 07:54:59;;;;;;;3.83;3.38;;;8.60;99.90;;;;;;4969463;28;20252;-47
2023/04/20 07:57:25;;;;;;;3.50;2.80;;;8.60;99.90;;;;;;4969406;28;20639;-48
2023/04/20 07:59:51;;;;;;;2.88;2.17;;;8.40;99.90;;;;;;4969018;28;20181;-51
2023/04/20 08:02:17;;;;;;;3.42;2.97;;;8.20;99.90;;;;;;4968804;28;20181;-49
2023/04/20 08:04:45;;;;;;;4.03;3.00;;;8.20;99.90;;;;;;4968770;28;20192;-49
2023/04/20 08:07:11;;;;;;;2.40;2.00;;;8.00;99.90;;;;;;4968974;28;20178;-51
2023/04/20 08:09:37;;;;;;;3.95;2.88;;;;;;;;;;4968366;28;20236;-52
2023/04/20 08:12:04;;;;;;;3.83;2.78;;;8.10;99.90;;;;;;4968720;28;20550;-50
2023/04/20 08:14:29;;;;;;;3.90;2.63;;;8.00;99.90;;;;;;4968801;28;20219;-48
2023/04/20 08:16:55;;;;;;;3.13;2.83;;;;;;;;;;4968590;28;20169;-46
2023/04/20 08:19:21;;;;;;;3.95;3.30;;;8.10;99.90;;;;;;4968728;28;20245;-49
2023/04/20 08:21:47;;;;;;;3.00;2.70;;;;;;;;;;4968883;28;20180;-45
2023/04/20 08:24:13;;;;;;;3.22;2.92;;;8.20;99.90;;;;;;4967773;28;20173;-47
2023/04/20 08:26:39;;;;;;;5.30;3.13;;;8.30;99.90;;;;;;4968752;28;20182;-46
2023/04/20 08:29:05;;;;;;;4.20;3.05;;;8.20;99.90;;;;;;4968050;28;20205;-46
2023/04/20 08:31:32;;;;;;;2.80;2.60;;;;;;;;;;4974190;28;20187;-47
2023/04/20 08:33:57;;;;;;;4.45;3.33;;;8.30;99.90;;;;;;4988164;28;20173;-46
2023/04/20 08:36:23;;;;;;;3.45;2.78;;;8.40;99.90;;;;;;4987649;28;20887;-46
2023/04/20 08:39:04;;;;;;;3.20;2.90;;;8.50;99.90;;;;;;4987897;28;20529;-46
2023/04/20 08:41:30;;;;;;;4.40;3.00;;;;;;;;;;4987913;28;20176;-45
2023/04/20 08:43:56;;;;;;;4.68;2.90;;;;;;;;;;4988026;28;20205;-48
2023/04/20 08:46:23;;;;;;;4.30;3.15;;;8.50;99.90;;;;;;4987932;28;20172;-49
2023/04/20 08:48:50;;;;;;;3.55;3.25;;;8.50;99.90;;;;;;4987395;28;20201;-46
2023/04/20 08:51:16;;;;;;;3.85;3.38;;;;;;;;;;4987628;28;20168;-45
2023/04/20 08:53:43;;;;;;;4.03;3.55;;;;;;;;;;4976687;28;20815;-45
2023/04/20 08:56:08;;;;;;;3.75;3.20;;;8.50;99.90;;;;;;4968266;28;20509;-46
2023/04/20 08:58:34;;;;;;;4.07;3.70;;;8.30;99.90;;;;;;4968105;28;20176;-46
2023/04/20 09:01:00;;;;;;;3.88;3.50;;;;;;;;;;4968576;28;20185;-46
2023/04/20 09:03:41;;;;;;;4.75;3.50;;;8.20;99.90;;;;;;4968263;28;20167;-45
2023/04/20 09:06:17;;;;;;;5.28;4.03;;;8.30;99.90;;;;;;4968243;28;20181;-46
2023/04/20 09:08:44;;;;;;;5.25;3.38;;;8.50;99.90;;;;;;4974404;28;20204;-53
2023/04/20 09:11:40;;;;;;;3.95;3.35;;;8.40;99.90;;;;;;4987254;28;20208;-51
2023/04/20 09:14:11;;;;;;;4.97;3.60;;;8.30;99.90;;;;;;4999717;28;20267;-52
2023/04/20 09:16:51;;;;;;;5.00;3.50;;;8.50;99.90;;;;;;4987222;28;20663;-55
2023/04/20 09:19:23;;;;;;;2.42;1.58;;;8.40;99.90;;;;;;4987241;28;20167;-51
2023/04/20 09:21:53;;;;;;;4.25;3.75;;;8.40;99.90;;;;;;4987160;28;20180;-47
2023/04/20 09:24:20;;;;;;;5.70;3.70;;;8.30;99.90;;;;;;4971641;28;20173;-45
2023/04/20 09:26:46;;;;;;;5.80;3.40;;;;;;;;;;4967619;28;20180;-46
2023/04/20 09:29:16;;;;;;;4.47;3.50;;;8.50;99.90;;;;;;4967624;28;20212;-47
2023/04/20 09:31:42;;;;;;;8.48;3.10;;;8.60;99.90;;;;;;4967710;28;20628;-47
2023/04/20 09:34:08;;;;;;;3.13;2.83;;;8.70;99.90;;;;;;4967598;28;20197;-52
2023/04/20 09:36:36;;;;;;;3.03;2.70;;;;;;;;;;4967590;28;20256;-51
2023/04/20 09:39:07;;;;;;;4.05;3.10;;;9.00;99.90;;;;;;4967902;28;20629;-45
2023/04/20 09:41:34;;;;;;;4.00;3.40;;;;;;;;;;4970771;28;20253;-45
2023/04/20 09:44:00;;;;;;;3.58;3.22;;;9.60;99.90;;;;;;4971387;28;20221;-50
2023/04/20 09:46:29;;;;;;;4.13;3.38;;;9.70;99.90;;;;;;4971258;28;20746;-50
2023/04/20 09:48:55;;;;;;;4.82;3.60;;;9.90;99.90;;;;;;4971191;28;20751;-47
2023/04/20 09:51:21;;;;;;;3.58;3.00;;;9.50;99.90;;;;;;4970668;28;20173;-47
2023/04/20 09:53:48;;;;;;;3.35;3.05;;;;;;;;;;4981213;28;20533;-50
2023/04/20 09:56:15;;;;;;;5.53;3.45;;;9.50;99.90;;;;;;4989758;28;20625;-49
2023/04/20 09:58:43;;;;;;;3.63;2.40;;;9.40;99.90;;;;;;4972753;28;20213;-46
2023/04/20 10:01:10;;;;;;;3.65;2.90;;;;;;;;;;4990101;28;20175;-56
2023/04/20 10:03:36;;;;;;;3.30;3.00;;;;;;;;;;4990053;28;20645;-48
2023/04/20 10:06:01;;;;;;;2.97;2.65;;;9.50;99.90;;;;;;4990147;28;20165;-55
2023/04/20 10:08:27;;;;;;;3.72;3.28;;;;;;;;;;4990224;28;20184;-51
2023/04/20 10:10:53;;;;;;;4.72;3.13;;;9.60;99.90;;;;;;4990110;28;20299;-48
2023/04/20 10:13:20;;;;;;;4.22;3.25;;;;;;;;;;4989902;28;20214;-50
2023/04/20 10:15:46;;;;;;;2.97;2.63;;;9.50;99.90;;;;;;4990082;28;20177;-50
2023/04/20 10:18:25;;;;;;;4.65;3.30;;;9.50;99.90;;;;;;4989831;28;20570;-46
2023/04/20 10:21:02;;;;;;;4.13;3.20;;;9.40;99.90;;;;;;4989692;28;20172;-48
2023/04/20 10:23:28;;;;;;;4.82;3.75;;;9.30;99.90;;;;;;4978277;28;20755;-52
2023/04/20 10:25:56;;;;;;;7.82;4.10;;;9.00;99.90;;;;;;4970482;28;20177;-46
2023/04/20 10:28:21;;;;;;;4.78;3.10;;;8.20;99.90;;;;;;4970442;28;20292;-50
2023/04/20 10:30:52;;;;;;;4.10;3.00;;;8.10;99.90;;;;;;4970310;28;20312;-46
2023/04/20 10:33:18;;;;;;;3.40;2.80;;;8.00;99.90;;;;;;4970325;28;20200;-49
2023/04/20 10:35:53;;;;;;;4.40;2.40;;;8.20;99.90;;;;;;4970379;28;20188;-46
2023/04/20 10:38:29;;;;;;;2.95;2.65;;;8.50;99.90;;;;;;4970156;28;20177;-46
2023/04/20 10:40:55;;;;;;;3.83;3.42;;;8.60;99.90;;;;;;4970520;28;20234;-49
2023/04/20 10:43:21;;;;;;;3.22;2.40;;;8.80;99.90;;;;;;4969963;28;20162;-48
2023/04/20 10:45:47;;;;;;;3.58;2.08;;;9.00;99.90;;;;;;4969588;28;20239;-46
2023/04/20 10:48:13;;;;;;;3.15;2.65;;;;;;;;;;4969704;28;20174;-47
2023/04/20 10:50:39;;;;;;;2.30;2.10;;;;;;;;;;4969462;28;20239;-45
2023/04/20 10:53:06;;;;;;;5.80;3.65;;;10.00;99.90;;;;;;4976439;28;20177;-46
2023/04/20 10:55:33;;;;;;;3.70;3.05;;;10.30;99.90;;;;;;4989254;28;20556;-46
2023/04/20 10:57:59;;;;;;;3.10;2.58;;;;;;;;;;4980814;28;20189;-46
2023/04/20 11:00:27;;;;;;;2.30;2.10;;;10.80;99.90;;;;;;4969734;28;20192;-48
2023/04/20 11:02:57;;;;;;;1.70;1.60;;;11.00;99.90;;;;;;4969604;28;20172;-46
2023/04/20 11:05:25;;;;;;;3.92;1.80;;;11.00;99.90;;;;;;4969508;28;20234;-47
2023/04/20 11:07:52;;;;;;;1.52;1.42;;;11.10;99.90;;;;;;4972738;28;20176;-47
2023/04/20 11:10:18;;;;;;;1.88;1.77;;;;;;;;;;4969278;28;20233;-46
2023/04/20 11:12:44;;;;;;;2.33;1.98;;;11.40;99.90;;;;;;4984860;28;20642;-48
2023/04/20 11:15:10;;;;;;;3.70;1.88;;;11.70;99.90;;;;;;4988830;28;20243;-49
2023/04/20 11:17:37;;;;;;;2.30;2.05;;;11.40;99.90;;;;;;4988767;28;20257;-46
2023/04/20 11:20:15;;;;;;;2.20;1.80;;;11.20;99.90;;;;;;4988704;28;20200;-47
2023/04/20 11:22:41;;;;;;;2.58;2.38;;;10.70;99.90;;;;;;4985306;28;20177;-46
2023/04/20 11:25:09;;;;;;;1.35;1.25;;;11.00;99.90;;;;;;4969046;28;20272;-47
2023/04/20 11:27:35;;;;;;;1.58;1.48;;;11.00;99.90;;;;;;4969261;28;20173;-46
2023/04/20 11:30:04;;;;;;;2.15;1.63;;;11.10;99.90;;;;;;4968917;28;20205;-50
2023/04/20 11:32:31;;;;;;;4.25;3.13;;;11.30;99.90;;;;;;4981931;28;20539;-46
2023/04/20 11:35:06;;;;;;;2.08;1.60;;;11.20;99.90;;;;;;4971511;28;20581;-46
2023/04/20 11:37:32;;;;;;;2.72;2.40;;;11.20;99.90;;;;;;4969273;28;20183;-50
2023/04/20 11:40:02;;;;;;;3.65;1.55;;;11.10;99.90;;;;;;4969213;28;20173;-46
2023/04/20 11:42:27;;;;;;;2.10;1.90;;;10.90;99.90;;;;;;4968056;28;20170;-50
2023/04/20 11:44:53;;;;;;;3.20;2.58;;;;;;;;;;4968163;28;20254;-46
2023/04/20 11:47:19;;;;;;;2.83;2.38;;;;;;;;;;4968063;28;20212;-45
2023/04/20 11:49:45;;;;;;;2.53;1.80;;;11.10;99.90;;;;;;4949463;28;20209;-46
2023/04/20 11:52:10;;;;;;;1.60;1.50;;;11.50;99.90;;;;;;4949649;28;20672;-46
2023/04/20 11:54:36;;;;;;;2.70;1.70;;;11.40;99.90;;;;;;4985035;28;20644;-46
2023/04/20 11:57:02;;;;;;;1.63;1.30;;;;;;;;;;4988010;28;20180;-47
2023/04/20 11:59:28;;;;;;;2.15;1.95;;;11.40;99.90;;;;;;4970773;28;20180;-50
2023/04/20 12:01:54;;;;;;;1.55;1.45;;;;;;;;;;4968307;28;20173;-49
2023/04/20 12:04:20;;;;;;;1.60;1.50;;;;;;;;;;4968591;28;20173;-47
2023/04/20 12:06:45;;;;;;;1.80;1.40;;;12.60;99.90;;;;;;4968948;28;20518;-50
2023/04/20 12:09:12;;;;;;;2.13;1.70;;;12.30;99.90;;;;;;4968413;28;20232;-50
2023/04/20 12:11:37;;;;;;;1.85;1.75;;;12.30;99.90;;;;;;4968698;28;20181;-52
2023/04/20 12:14:03;;;;;;;1.73;1.63;;;12.00;99.90;;;;;;4968207;28;20177;-51
2023/04/20 12:16:29;;;;;;;3.35;2.35;;;;;;;;;;4968456;28;20574;-46
2023/04/20 12:18:55;;;;;;;1.60;1.42;;;11.80;99.90;;;;;;4977909;28;20267;-46
2023/04/20 12:21:21;;;;;;;1.40;1.30;;;11.60;99.90;;;;;;4987966;28;20303;-50
2023/04/20 12:23:48;;;;;;;2.03;1.83;;;11.60;99.90;;;;;;4987919;28;20223;-48
2023/04/20 12:26:14;;;;;;;66.03;37.97;;;;;;;;;;4987765;28;20204;-47
2023/04/20 12:28:40;;;;;;;5.25;3.70;;;11.80;99.90;;;;;;4987835;28;20195;-50
2023/04/20 12:31:06;;;;;;;1.80;1.70;;;;;;;;;;4987848;28;20645;-52
2023/04/20 12:33:32;;;;;;;3.10;2.33;;;12.10;99.90;;;;;;4987781;28;20176;-46
2023/04/20 12:35:58;;;;;;;125.93;85.93;;;;;;;;;;4988112;28;20169;-46
2023/04/20 12:38:24;;;;;;;106.38;78.85;;;12.60;99.90;;;;;;4988040;28;20196;-47
2023/04/20 12:40:50;;;;;;;2.67;2.47;;;;;;;;;;4987861;28;20255;-46
2023/04/20 12:43:15;;;;;;;4.53;2.35;;;12.40;99.90;;;;;;4988012;28;20621;-46
2023/04/20 12:45:41;;;;;;;6.85;5.78;;;12.80;99.90;;;;;;4987524;28;20188;-46
2023/04/20 12:48:07;;;;;;;2.97;2.45;;;;;;;;;;4984952;28;20524;-49
2023/04/20 12:50:32;;;;;;;3.00;2.70;;;12.70;99.90;;;;;;4967990;28;20216;-49
2023/04/20 12:52:58;;;;;;;4.40;4.00;;;;;;;;;;4968579;28;20174;-47
2023/04/20 12:55:25;;;;;;;3.08;2.88;;;12.60;99.90;;;;;;4968017;28;20181;-47
2023/04/20 12:57:50;;;;;;;5.40;4.47;;;12.50;99.90;;;;;;4967837;28;20256;-51
2023/04/20 13:00:16;;;;;;;4.10;3.28;;;12.20;99.90;;;;;;4967938;28;20264;-52
2023/04/20 13:02:42;;;;;;;4.88;3.60;;;12.30;99.90;;;;;;4967864;28;20248;-52
2023/04/20 13:05:08;;;;;;;3.75;3.22;;;12.40;99.90;;;;;;4967834;28;20276;-47
2023/04/20 13:07:34;;;;;;;4.65;3.80;;;;;;;;;;4967845;28;20199;-47
2023/04/20 13:10:00;;;;;;;5.95;5.35;;;;;;;;;;4967579;28;20573;-47
2023/04/20 13:12:25;;;;;;;3.53;3.22;;;13.20;99.90;;;;;;4968570;28;20200;-52
2023/04/20 13:14:51;;;;;;;5.72;3.70;;;13.50;99.90;;;;;;4969900;28;20633;-49
2023/04/20 13:17:17;;;;;;;8.35;6.13;;;;;;;;;;4971019;28;20214;-49
2023/04/20 13:19:46;;;;;;;4.40;3.35;;;13.50;99.90;;;;;;4969813;28;20181;-49
2023/04/20 13:22:11;;;;;;;3.15;2.80;;;13.80;99.90;;;;;;4971217;28;20161;-50